sensor_id;sensor_type;location;lat;lon;timestamp;P1;durP1;ratioP1;P2;durP2;ratioP2
15271;SDS011;7737;51.578;7.268;2024-01-06T00:00:42;11.60;;;10.60;;
15271;SDS011;7737;51.578;7.268;2024-01-06T00:03:08;11.98;;;10.77;;
15271;SDS011;7737;51.578;7.268;2024-01-06T00:05:36;11.93;;;10.80;;
15271;SDS011;7737;51.578;7.268;2024-01-06T00:08:03;12.38;;;11.18;;
15271;SDS011;7737;51.578;7.268;2024-01-06T00:10:31;12.38;;;11.07;;
15271;SDS011;7737;51.578;7.268;2024-01-06T00:12:57;13.38;;;12.10;;
15271;SDS011;7737;51.578;7.268;2024-01-06T00:15:24;13.80;;;12.50;;
15271;SDS011;7737;51.578;7.268;2024-01-06T00:17:50;13.23;;;11.73;;
15271;SDS011;7737;51.578;7.268;2024-01-06T00:20:17;12.57;;;11.48;;
15271;SDS011;7737;51.578;7.268;2024-01-06T00:22:45;14.23;;;12.80;;
15271;SDS011;7737;51.578;7.268;2024-01-06T00:25:11;13.90;;;12.57;;
15271;SDS011;7737;51.578;7.268;2024-01-06T00:27:38;13.52;;;12.23;;
15271;SDS011;7737;51.578;7.268;2024-01-06T00:30:05;14.55;;;13.05;;
15271;SDS011;7737;51.578;7.268;2024-01-06T00:32:33;14.57;;;13.07;;
15271;SDS011;7737;51.578;7.268;2024-01-06T00:35:00;13.90;;;12.57;;
15271;SDS011;7737;51.578;7.268;2024-01-06T00:37:26;14.85;;;13.45;;
15271;SDS011;7737;51.578;7.268;2024-01-06T00:39:54;14.68;;;13.18;;
15271;SDS011;7737;51.578;7.268;2024-01-06T00:42:20;15.10;;;13.52;;
15271;SDS011;7737;51.578;7.268;2024-01-06T00:44:47;15.57;;;13.98;;
15271;SDS011;7737;51.578;7.268;2024-01-06T00:47:13;16.02;;;14.43;;
15271;SDS011;7737;51.578;7.268;2024-01-06T00:49:40;16.38;;;14.70;;
15271;SDS011;7737;51.578;7.268;2024-01-06T00:52:06;15.93;;;14.32;;
15271;SDS011;7737;51.578;7.268;2024-01-06T00:54:33;15.82;;;14.15;;
15271;SDS011;7737;51.578;7.268;2024-01-06T00:57:01;15.75;;;14.10;;
15271;SDS011;7737;51.578;7.268;2024-01-06T00:59:27;19.02;;;15.52;;
15271;SDS011;7737;51.578;7.268;2024-01-06T01:01:53;15.70;;;14.10;;
15271;SDS011;7737;51.578;7.268;2024-01-06T01:04:20;17.63;;;15.75;;
15271;SDS011;7737;51.578;7.268;2024-01-06T01:06:47;17.50;;;15.57;;
15271;SDS011;7737;51.578;7.268;2024-01-06T01:09:13;16.25;;;14.57;;
15271;SDS011;7737;51.578;7.268;2024-01-06T01:11:40;17.80;;;15.88;;
15271;SDS011;7737;51.578;7.268;2024-01-06T01:14:08;18.05;;;15.43;;
15271;SDS011;7737;51.578;7.268;2024-01-06T01:16:35;15.60;;;14.00;;
15271;SDS011;7737;51.578;7.268;2024-01-06T01:19:01;17.85;;;15.95;;
15271;SDS011;7737;51.578;7.268;2024-01-06T01:21:28;17.77;;;15.20;;
15271;SDS011;7737;51.578;7.268;2024-01-06T01:23:54;17.85;;;15.95;;
15271;SDS011;7737;51.578;7.268;2024-01-06T01:26:21;18.55;;;16.65;;
15271;SDS011;7737;51.578;7.268;2024-01-06T01:28:47;18.17;;;16.25;;
15271;SDS011;7737;51.578;7.268;2024-01-06T01:31:15;18.38;;;15.73;;
15271;SDS011;7737;51.578;7.268;2024-01-06T01:33:42;17.38;;;15.57;;
15271;SDS011;7737;51.578;7.268;2024-01-06T01:36:08;17.38;;;15.57;;
15271;SDS011;7737;51.578;7.268;2024-01-06T01:38:35;19.83;;;17.65;;
15271;SDS011;7737;51.578;7.268;2024-01-06T01:41:01;18.52;;;16.20;;
15271;SDS011;7737;51.578;7.268;2024-01-06T01:43:28;19.45;;;17.38;;
15271;SDS011;7737;51.578;7.268;2024-01-06T01:45:55;18.00;;;16.20;;
15271;SDS011;7737;51.578;7.268;2024-01-06T01:48:24;18.27;;;16.33;;
15271;SDS011;7737;51.578;7.268;2024-01-06T01:50:51;19.05;;;16.92;;
15271;SDS011;7737;51.578;7.268;2024-01-06T01:53:19;17.67;;;15.77;;
15271;SDS011;7737;51.578;7.268;2024-01-06T01:55:45;18.63;;;16.70;;
15271;SDS011;7737;51.578;7.268;2024-01-06T01:58:14;18.17;;;16.25;;
15271;SDS011;7737;51.578;7.268;2024-01-06T02:00:42;19.35;;;17.35;;
15271;SDS011;7737;51.578;7.268;2024-01-06T02:03:08;18.92;;;16.92;;
15271;SDS011;7737;51.578;7.268;2024-01-06T02:05:38;19.73;;;17.63;;
15271;SDS011;7737;51.578;7.268;2024-01-06T02:08:05;18.70;;;16.33;;
15271;SDS011;7737;51.578;7.268;2024-01-06T02:10:32;19.25;;;16.33;;
15271;SDS011;7737;51.578;7.268;2024-01-06T02:13:06;19.42;;;17.27;;
15271;SDS011;7737;51.578;7.268;2024-01-06T02:15:33;20.23;;;17.10;;
15271;SDS011;7737;51.578;7.268;2024-01-06T02:18:00;18.60;;;16.58;;
15271;SDS011;7737;51.578;7.268;2024-01-06T02:20:27;19.98;;;17.33;;
15271;SDS011;7737;51.578;7.268;2024-01-06T02:22:56;19.27;;;16.77;;
15271;SDS011;7737;51.578;7.268;2024-01-06T02:25:25;18.40;;;16.45;;
15271;SDS011;7737;51.578;7.268;2024-01-06T02:27:52;19.77;;;17.65;;
15271;SDS011;7737;51.578;7.268;2024-01-06T02:30:18;19.52;;;17.42;;
15271;SDS011;7737;51.578;7.268;2024-01-06T02:32:45;19.73;;;17.48;;
15271;SDS011;7737;51.578;7.268;2024-01-06T02:35:11;20.80;;;17.70;;
15271;SDS011;7737;51.578;7.268;2024-01-06T02:37:38;19.05;;;16.85;;
15271;SDS011;7737;51.578;7.268;2024-01-06T02:40:06;17.60;;;15.10;;
15271;SDS011;7737;51.578;7.268;2024-01-06T02:42:34;16.15;;;14.45;;
15271;SDS011;7737;51.578;7.268;2024-01-06T02:45:00;15.52;;;12.73;;
15271;SDS011;7737;51.578;7.268;2024-01-06T02:47:27;14.65;;;12.68;;
15271;SDS011;7737;51.578;7.268;2024-01-06T02:49:53;13.70;;;11.95;;
15271;SDS011;7737;51.578;7.268;2024-01-06T02:52:19;13.48;;;11.60;;
15271;SDS011;7737;51.578;7.268;2024-01-06T02:54:47;12.38;;;11.02;;
15271;SDS011;7737;51.578;7.268;2024-01-06T02:57:15;12.60;;;10.95;;
15271;SDS011;7737;51.578;7.268;2024-01-06T02:59:42;12.88;;;11.52;;
15271;SDS011;7737;51.578;7.268;2024-01-06T03:02:08;11.50;;;10.15;;
15271;SDS011;7737;51.578;7.268;2024-01-06T03:04:35;12.98;;;10.90;;
15271;SDS011;7737;51.578;7.268;2024-01-06T03:07:01;12.65;;;11.25;;
15271;SDS011;7737;51.578;7.268;2024-01-06T03:09:28;12.80;;;11.00;;
15271;SDS011;7737;51.578;7.268;2024-01-06T03:11:54;12.35;;;11.02;;
15271;SDS011;7737;51.578;7.268;2024-01-06T03:14:22;13.93;;;11.63;;
15271;SDS011;7737;51.578;7.268;2024-01-06T03:16:49;12.35;;;10.25;;
15271;SDS011;7737;51.578;7.268;2024-01-06T03:19:15;12.23;;;10.93;;
15271;SDS011;7737;51.578;7.268;2024-01-06T03:21:41;12.88;;;10.48;;
15271;SDS011;7737;51.578;7.268;2024-01-06T03:24:08;13.77;;;11.52;;
15271;SDS011;7737;51.578;7.268;2024-01-06T03:26:35;12.15;;;10.65;;
15271;SDS011;7737;51.578;7.268;2024-01-06T03:29:01;12.82;;;10.65;;
15271;SDS011;7737;51.578;7.268;2024-01-06T03:31:29;12.95;;;10.75;;
15271;SDS011;7737;51.578;7.268;2024-01-06T03:33:55;12.80;;;10.02;;
15271;SDS011;7737;51.578;7.268;2024-01-06T03:36:22;13.00;;;10.88;;
15271;SDS011;7737;51.578;7.268;2024-01-06T03:38:47;12.77;;;10.77;;
15271;SDS011;7737;51.578;7.268;2024-01-06T03:41:14;12.23;;;10.27;;
15271;SDS011;7737;51.578;7.268;2024-01-06T03:43:40;12.13;;;10.23;;
15271;SDS011;7737;51.578;7.268;2024-01-06T03:46:07;11.95;;;10.07;;
15271;SDS011;7737;51.578;7.268;2024-01-06T03:48:34;12.35;;;10.43;;
15271;SDS011;7737;51.578;7.268;2024-01-06T03:51:01;11.40;;;9.85;;
15271;SDS011;7737;51.578;7.268;2024-01-06T03:53:28;11.75;;;9.70;;
15271;SDS011;7737;51.578;7.268;2024-01-06T03:55:55;11.25;;;9.68;;
15271;SDS011;7737;51.578;7.268;2024-01-06T03:58:21;11.18;;;9.75;;
15271;SDS011;7737;51.578;7.268;2024-01-06T04:00:48;11.75;;;9.93;;
15271;SDS011;7737;51.578;7.268;2024-01-06T04:03:14;11.15;;;9.75;;
15271;SDS011;7737;51.578;7.268;2024-01-06T04:05:42;11.40;;;9.32;;
15271;SDS011;7737;51.578;7.268;2024-01-06T04:08:08;11.77;;;9.68;;
15271;SDS011;7737;51.578;7.268;2024-01-06T04:10:35;11.70;;;9.87;;
15271;SDS011;7737;51.578;7.268;2024-01-06T04:13:01;11.02;;;9.45;;
15271;SDS011;7737;51.578;7.268;2024-01-06T04:15:28;12.33;;;9.93;;
15271;SDS011;7737;51.578;7.268;2024-01-06T04:17:54;11.65;;;10.20;;
15271;SDS011;7737;51.578;7.268;2024-01-06T04:20:21;11.93;;;9.50;;
15271;SDS011;7737;51.578;7.268;2024-01-06T04:22:49;11.70;;;9.60;;
15271;SDS011;7737;51.578;7.268;2024-01-06T04:25:15;12.00;;;9.90;;
15271;SDS011;7737;51.578;7.268;2024-01-06T04:27:42;12.10;;;9.63;;
15271;SDS011;7737;51.578;7.268;2024-01-06T04:30:10;11.85;;;10.05;;
15271;SDS011;7737;51.578;7.268;2024-01-06T04:32:37;11.13;;;9.90;;
15271;SDS011;7737;51.578;7.268;2024-01-06T04:35:04;12.98;;;10.43;;
15271;SDS011;7737;51.578;7.268;2024-01-06T04:37:31;12.57;;;10.63;;
15271;SDS011;7737;51.578;7.268;2024-01-06T04:39:59;12.70;;;10.27;;
15271;SDS011;7737;51.578;7.268;2024-01-06T04:42:25;13.27;;;11.15;;
15271;SDS011;7737;51.578;7.268;2024-01-06T04:44:52;13.00;;;11.18;;
15271;SDS011;7737;51.578;7.268;2024-01-06T04:47:18;13.02;;;10.88;;
15271;SDS011;7737;51.578;7.268;2024-01-06T04:49:45;13.37;;;11.00;;
15271;SDS011;7737;51.578;7.268;2024-01-06T04:52:11;13.10;;;10.67;;
15271;SDS011;7737;51.578;7.268;2024-01-06T04:54:38;11.73;;;10.45;;
15271;SDS011;7737;51.578;7.268;2024-01-06T04:57:06;14.07;;;11.32;;
15271;SDS011;7737;51.578;7.268;2024-01-06T04:59:32;13.70;;;10.52;;
15271;SDS011;7737;51.578;7.268;2024-01-06T05:01:59;12.68;;;10.77;;
15271;SDS011;7737;51.578;7.268;2024-01-06T05:04:25;12.07;;;10.20;;
15271;SDS011;7737;51.578;7.268;2024-01-06T05:06:52;13.70;;;11.48;;
15271;SDS011;7737;51.578;7.268;2024-01-06T05:09:19;12.93;;;11.25;;
15271;SDS011;7737;51.578;7.268;2024-01-06T05:11:45;13.70;;;11.40;;
15271;SDS011;7737;51.578;7.268;2024-01-06T05:14:13;14.07;;;12.20;;
15271;SDS011;7737;51.578;7.268;2024-01-06T05:16:40;13.65;;;11.27;;
15271;SDS011;7737;51.578;7.268;2024-01-06T05:19:07;14.52;;;12.55;;
15271;SDS011;7737;51.578;7.268;2024-01-06T05:21:33;14.87;;;12.73;;
15271;SDS011;7737;51.578;7.268;2024-01-06T05:24:00;16.00;;;13.20;;
15271;SDS011;7737;51.578;7.268;2024-01-06T05:26:28;15.20;;;12.77;;
15271;SDS011;7737;51.578;7.268;2024-01-06T05:28:54;16.45;;;13.13;;
15271;SDS011;7737;51.578;7.268;2024-01-06T05:31:22;14.55;;;12.63;;
15271;SDS011;7737;51.578;7.268;2024-01-06T05:33:49;15.43;;;13.52;;
15271;SDS011;7737;51.578;7.268;2024-01-06T05:36:20;15.38;;;13.10;;
15271;SDS011;7737;51.578;7.268;2024-01-06T05:38:47;15.82;;;13.07;;
15271;SDS011;7737;51.578;7.268;2024-01-06T05:41:13;16.08;;;13.45;;
15271;SDS011;7737;51.578;7.268;2024-01-06T05:43:40;16.10;;;13.13;;
15271;SDS011;7737;51.578;7.268;2024-01-06T05:46:06;15.07;;;13.00;;
15271;SDS011;7737;51.578;7.268;2024-01-06T05:48:34;15.30;;;13.00;;
15271;SDS011;7737;51.578;7.268;2024-01-06T05:51:01;16.10;;;13.38;;
15271;SDS011;7737;51.578;7.268;2024-01-06T05:53:27;14.77;;;12.93;;
15271;SDS011;7737;51.578;7.268;2024-01-06T05:55:54;15.30;;;12.87;;
15271;SDS011;7737;51.578;7.268;2024-01-06T05:58:20;14.63;;;12.27;;
15271;SDS011;7737;51.578;7.268;2024-01-06T06:00:47;14.50;;;12.23;;
15271;SDS011;7737;51.578;7.268;2024-01-06T06:03:14;14.63;;;12.50;;
15271;SDS011;7737;51.578;7.268;2024-01-06T06:05:42;15.37;;;12.60;;
15271;SDS011;7737;51.578;7.268;2024-01-06T06:08:10;12.82;;;11.35;;
15271;SDS011;7737;51.578;7.268;2024-01-06T06:10:36;15.23;;;12.40;;
15271;SDS011;7737;51.578;7.268;2024-01-06T06:13:16;15.97;;;12.20;;
15271;SDS011;7737;51.578;7.268;2024-01-06T06:15:43;14.97;;;12.10;;
15271;SDS011;7737;51.578;7.268;2024-01-06T06:18:10;15.47;;;12.47;;
15271;SDS011;7737;51.578;7.268;2024-01-06T06:20:36;16.15;;;12.15;;
15271;SDS011;7737;51.578;7.268;2024-01-06T06:23:05;14.73;;;12.13;;
15271;SDS011;7737;51.578;7.268;2024-01-06T06:25:31;14.27;;;12.47;;
15271;SDS011;7737;51.578;7.268;2024-01-06T06:27:57;14.65;;;12.77;;
15271;SDS011;7737;51.578;7.268;2024-01-06T06:30:24;15.18;;;13.15;;
15271;SDS011;7737;51.578;7.268;2024-01-06T06:32:51;15.03;;;12.80;;
15271;SDS011;7737;51.578;7.268;2024-01-06T06:35:17;14.67;;;12.40;;
15271;SDS011;7737;51.578;7.268;2024-01-06T06:37:43;16.10;;;13.23;;
15271;SDS011;7737;51.578;7.268;2024-01-06T06:40:11;14.85;;;13.10;;
15271;SDS011;7737;51.578;7.268;2024-01-06T06:42:38;15.23;;;13.55;;
15271;SDS011;7737;51.578;7.268;2024-01-06T06:45:05;15.10;;;13.00;;
15271;SDS011;7737;51.578;7.268;2024-01-06T06:47:32;15.38;;;13.30;;
15271;SDS011;7737;51.578;7.268;2024-01-06T06:49:58;15.90;;;13.40;;
15271;SDS011;7737;51.578;7.268;2024-01-06T06:52:25;15.45;;;12.68;;
15271;SDS011;7737;51.578;7.268;2024-01-06T06:54:51;15.70;;;12.23;;
15271;SDS011;7737;51.578;7.268;2024-01-06T06:57:19;15.95;;;13.57;;
15271;SDS011;7737;51.578;7.268;2024-01-06T06:59:46;14.60;;;12.77;;
15271;SDS011;7737;51.578;7.268;2024-01-06T07:02:12;15.85;;;13.10;;
15271;SDS011;7737;51.578;7.268;2024-01-06T07:04:39;15.93;;;13.00;;
15271;SDS011;7737;51.578;7.268;2024-01-06T07:07:05;16.40;;;13.38;;
15271;SDS011;7737;51.578;7.268;2024-01-06T07:09:32;16.45;;;13.43;;
15271;SDS011;7737;51.578;7.268;2024-01-06T07:11:58;16.45;;;13.63;;
15271;SDS011;7737;51.578;7.268;2024-01-06T07:14:26;16.63;;;13.45;;
15271;SDS011;7737;51.578;7.268;2024-01-06T07:16:52;18.30;;;15.15;;
15271;SDS011;7737;51.578;7.268;2024-01-06T07:19:19;18.85;;;14.70;;
15271;SDS011;7737;51.578;7.268;2024-01-06T07:21:46;19.63;;;15.45;;
15271;SDS011;7737;51.578;7.268;2024-01-06T07:24:12;21.25;;;14.73;;
15271;SDS011;7737;51.578;7.268;2024-01-06T07:26:39;18.00;;;12.38;;
15271;SDS011;7737;51.578;7.268;2024-01-06T07:29:05;20.50;;;13.15;;
15271;SDS011;7737;51.578;7.268;2024-01-06T07:31:34;18.23;;;12.33;;
15271;SDS011;7737;51.578;7.268;2024-01-06T07:34:00;18.75;;;12.63;;
15271;SDS011;7737;51.578;7.268;2024-01-06T07:36:27;19.83;;;13.47;;
15271;SDS011;7737;51.578;7.268;2024-01-06T07:38:53;18.20;;;12.00;;
15271;SDS011;7737;51.578;7.268;2024-01-06T07:41:21;16.58;;;11.60;;
15271;SDS011;7737;51.578;7.268;2024-01-06T07:43:47;13.97;;;10.23;;
15271;SDS011;7737;51.578;7.268;2024-01-06T07:46:14;15.37;;;10.77;;
15271;SDS011;7737;51.578;7.268;2024-01-06T07:48:43;13.87;;;9.87;;
15271;SDS011;7737;51.578;7.268;2024-01-06T07:51:09;14.90;;;10.63;;
15271;SDS011;7737;51.578;7.268;2024-01-06T07:53:36;13.33;;;9.73;;
15271;SDS011;7737;51.578;7.268;2024-01-06T07:56:02;13.43;;;9.63;;
15271;SDS011;7737;51.578;7.268;2024-01-06T07:58:29;13.07;;;9.53;;
15271;SDS011;7737;51.578;7.268;2024-01-06T08:00:56;14.85;;;9.98;;
15271;SDS011;7737;51.578;7.268;2024-01-06T08:03:23;14.57;;;9.90;;
15271;SDS011;7737;51.578;7.268;2024-01-06T08:05:51;13.68;;;9.90;;
15271;SDS011;7737;51.578;7.268;2024-01-06T08:08:17;16.50;;;11.10;;
15271;SDS011;7737;51.578;7.268;2024-01-06T08:10:44;16.80;;;10.90;;
15271;SDS011;7737;51.578;7.268;2024-01-06T08:13:11;18.00;;;11.43;;
15271;SDS011;7737;51.578;7.268;2024-01-06T08:15:38;19.53;;;12.00;;
15271;SDS011;7737;51.578;7.268;2024-01-06T08:18:04;19.97;;;11.90;;
15271;SDS011;7737;51.578;7.268;2024-01-06T08:20:31;19.15;;;11.85;;
15271;SDS011;7737;51.578;7.268;2024-01-06T08:22:59;19.33;;;12.70;;
15271;SDS011;7737;51.578;7.268;2024-01-06T08:25:25;19.40;;;11.70;;
15271;SDS011;7737;51.578;7.268;2024-01-06T08:27:52;18.10;;;11.73;;
15271;SDS011;7737;51.578;7.268;2024-01-06T08:30:19;20.52;;;12.68;;
15271;SDS011;7737;51.578;7.268;2024-01-06T08:32:46;19.33;;;12.63;;
15271;SDS011;7737;51.578;7.268;2024-01-06T08:35:12;18.40;;;11.57;;
15271;SDS011;7737;51.578;7.268;2024-01-06T08:37:42;17.60;;;12.73;;
15271;SDS011;7737;51.578;7.268;2024-01-06T08:40:10;17.77;;;12.37;;
15271;SDS011;7737;51.578;7.268;2024-01-06T08:42:37;17.73;;;11.60;;
15271;SDS011;7737;51.578;7.268;2024-01-06T08:45:04;16.40;;;11.50;;
15271;SDS011;7737;51.578;7.268;2024-01-06T08:47:31;17.70;;;12.10;;
15271;SDS011;7737;51.578;7.268;2024-01-06T08:49:57;18.03;;;12.00;;
15271;SDS011;7737;51.578;7.268;2024-01-06T08:52:24;16.77;;;11.53;;
15271;SDS011;7737;51.578;7.268;2024-01-06T08:54:50;18.07;;;11.30;;
15271;SDS011;7737;51.578;7.268;2024-01-06T08:57:18;17.90;;;12.03;;
15271;SDS011;7737;51.578;7.268;2024-01-06T08:59:44;17.50;;;12.13;;
15271;SDS011;7737;51.578;7.268;2024-01-06T09:02:14;16.30;;;10.77;;
15271;SDS011;7737;51.578;7.268;2024-01-06T09:04:40;15.00;;;10.93;;
15271;SDS011;7737;51.578;7.268;2024-01-06T09:07:07;13.60;;;10.27;;
15271;SDS011;7737;51.578;7.268;2024-01-06T09:09:33;12.50;;;8.77;;
15271;SDS011;7737;51.578;7.268;2024-01-06T09:12:00;10.03;;;8.37;;
15271;SDS011;7737;51.578;7.268;2024-01-06T09:14:28;8.67;;;6.20;;
15271;SDS011;7737;51.578;7.268;2024-01-06T09:16:55;8.75;;;6.53;;
15271;SDS011;7737;51.578;7.268;2024-01-06T09:19:21;8.03;;;5.53;;
15271;SDS011;7737;51.578;7.268;2024-01-06T09:21:48;7.17;;;5.47;;
15271;SDS011;7737;51.578;7.268;2024-01-06T09:24:14;6.80;;;5.47;;
15271;SDS011;7737;51.578;7.268;2024-01-06T09:26:41;7.50;;;5.80;;
15271;SDS011;7737;51.578;7.268;2024-01-06T09:29:09;6.97;;;5.73;;
15271;SDS011;7737;51.578;7.268;2024-01-06T09:31:37;6.17;;;5.57;;
15271;SDS011;7737;51.578;7.268;2024-01-06T09:34:03;7.18;;;6.07;;
15271;SDS011;7737;51.578;7.268;2024-01-06T09:36:31;6.93;;;6.20;;
15271;SDS011;7737;51.578;7.268;2024-01-06T09:38:57;7.60;;;5.77;;
15271;SDS011;7737;51.578;7.268;2024-01-06T09:41:24;7.03;;;5.80;;
15271;SDS011;7737;51.578;7.268;2024-01-06T09:43:51;7.77;;;6.07;;
15271;SDS011;7737;51.578;7.268;2024-01-06T09:46:20;7.80;;;6.53;;
15271;SDS011;7737;51.578;7.268;2024-01-06T09:48:52;7.37;;;6.50;;
15271;SDS011;7737;51.578;7.268;2024-01-06T09:51:20;7.43;;;6.27;;
15271;SDS011;7737;51.578;7.268;2024-01-06T09:53:48;8.17;;;6.60;;
15271;SDS011;7737;51.578;7.268;2024-01-06T09:56:19;7.23;;;6.00;;
15271;SDS011;7737;51.578;7.268;2024-01-06T09:58:45;10.07;;;7.77;;
15271;SDS011;7737;51.578;7.268;2024-01-06T10:01:12;10.10;;;7.60;;
15271;SDS011;7737;51.578;7.268;2024-01-06T10:03:40;10.90;;;8.27;;
15271;SDS011;7737;51.578;7.268;2024-01-06T10:06:08;10.90;;;8.67;;
15271;SDS011;7737;51.578;7.268;2024-01-06T10:08:35;11.67;;;8.57;;
15271;SDS011;7737;51.578;7.268;2024-01-06T10:11:01;11.37;;;9.00;;
15271;SDS011;7737;51.578;7.268;2024-01-06T10:13:28;11.30;;;9.20;;
15271;SDS011;7737;51.578;7.268;2024-01-06T10:15:55;16.17;;;10.33;;
15271;SDS011;7737;51.578;7.268;2024-01-06T10:18:22;14.07;;;10.55;;
15271;SDS011;7737;51.578;7.268;2024-01-06T10:20:49;13.97;;;10.17;;
15271;SDS011;7737;51.578;7.268;2024-01-06T10:23:17;16.23;;;11.83;;
15271;SDS011;7737;51.578;7.268;2024-01-06T10:25:43;15.33;;;11.70;;
15271;SDS011;7737;51.578;7.268;2024-01-06T10:28:11;15.57;;;11.93;;
15271;SDS011;7737;51.578;7.268;2024-01-06T10:30:37;17.05;;;12.90;;
15271;SDS011;7737;51.578;7.268;2024-01-06T10:33:07;21.37;;;14.13;;
15271;SDS011;7737;51.578;7.268;2024-01-06T10:35:35;19.80;;;13.90;;
15271;SDS011;7737;51.578;7.268;2024-01-06T10:38:02;19.33;;;14.70;;
15271;SDS011;7737;51.578;7.268;2024-01-06T10:40:30;21.83;;;14.53;;
15271;SDS011;7737;51.578;7.268;2024-01-06T10:42:56;23.37;;;15.20;;
15271;SDS011;7737;51.578;7.268;2024-01-06T10:45:23;21.20;;;15.00;;
15271;SDS011;7737;51.578;7.268;2024-01-06T10:47:50;20.67;;;14.90;;
15271;SDS011;7737;51.578;7.268;2024-01-06T10:50:17;21.73;;;15.57;;
15271;SDS011;7737;51.578;7.268;2024-01-06T10:52:44;21.67;;;15.83;;
15271;SDS011;7737;51.578;7.268;2024-01-06T10:55:12;21.03;;;14.83;;
15271;SDS011;7737;51.578;7.268;2024-01-06T10:57:43;19.93;;;15.03;;
15271;SDS011;7737;51.578;7.268;2024-01-06T11:00:11;21.95;;;14.52;;
15271;SDS011;7737;51.578;7.268;2024-01-06T11:02:38;21.25;;;15.00;;
15271;SDS011;7737;51.578;7.268;2024-01-06T11:05:05;20.67;;;14.73;;
15271;SDS011;7737;51.578;7.268;2024-01-06T11:07:32;20.90;;;14.83;;
15271;SDS011;7737;51.578;7.268;2024-01-06T11:10:02;20.88;;;14.18;;
15271;SDS011;7737;51.578;7.268;2024-01-06T11:12:33;18.13;;;14.00;;
15271;SDS011;7737;51.578;7.268;2024-01-06T11:15:00;20.25;;;14.68;;
15271;SDS011;7737;51.578;7.268;2024-01-06T11:20:18;17.87;;;13.47;;
15271;SDS011;7737;51.578;7.268;2024-01-06T11:22:45;18.13;;;13.43;;
15271;SDS011;7737;51.578;7.268;2024-01-06T11:25:13;19.47;;;14.30;;
15271;SDS011;7737;51.578;7.268;2024-01-06T11:27:42;20.60;;;14.27;;
15271;SDS011;7737;51.578;7.268;2024-01-06T11:30:18;19.63;;;13.47;;
15271;SDS011;7737;51.578;7.268;2024-01-06T11:32:46;17.07;;;13.03;;
15271;SDS011;7737;51.578;7.268;2024-01-06T11:35:13;19.03;;;13.43;;
15271;SDS011;7737;51.578;7.268;2024-01-06T11:37:50;19.93;;;13.73;;
15271;SDS011;7737;51.578;7.268;2024-01-06T11:40:22;19.77;;;14.00;;
15271;SDS011;7737;51.578;7.268;2024-01-06T11:42:56;19.23;;;13.77;;
15271;SDS011;7737;51.578;7.268;2024-01-06T11:45:25;19.43;;;13.87;;
15271;SDS011;7737;51.578;7.268;2024-01-06T11:47:54;18.83;;;13.10;;
15271;SDS011;7737;51.578;7.268;2024-01-06T11:50:21;18.23;;;13.97;;
15271;SDS011;7737;51.578;7.268;2024-01-06T11:52:48;17.93;;;13.10;;
15271;SDS011;7737;51.578;7.268;2024-01-06T11:55:15;15.53;;;11.90;;
15271;SDS011;7737;51.578;7.268;2024-01-06T11:57:43;16.63;;;12.00;;
15271;SDS011;7737;51.578;7.268;2024-01-06T12:00:10;16.13;;;12.20;;
15271;SDS011;7737;51.578;7.268;2024-01-06T12:02:40;16.47;;;12.13;;
15271;SDS011;7737;51.578;7.268;2024-01-06T12:05:11;19.83;;;12.60;;
15271;SDS011;7737;51.578;7.268;2024-01-06T12:07:39;19.30;;;12.90;;
15271;SDS011;7737;51.578;7.268;2024-01-06T12:10:07;18.37;;;12.27;;
15271;SDS011;7737;51.578;7.268;2024-01-06T12:12:34;17.37;;;11.83;;
15271;SDS011;7737;51.578;7.268;2024-01-06T12:15:00;17.00;;;12.03;;
15271;SDS011;7737;51.578;7.268;2024-01-06T12:17:27;18.80;;;12.03;;
15271;SDS011;7737;51.578;7.268;2024-01-06T12:19:57;18.53;;;13.77;;
15271;SDS011;7737;51.578;7.268;2024-01-06T12:22:25;20.83;;;14.00;;
15271;SDS011;7737;51.578;7.268;2024-01-06T12:24:52;17.83;;;13.80;;
15271;SDS011;7737;51.578;7.268;2024-01-06T12:27:19;21.87;;;14.50;;
15271;SDS011;7737;51.578;7.268;2024-01-06T12:29:46;20.03;;;13.77;;
15271;SDS011;7737;51.578;7.268;2024-01-06T12:32:13;19.57;;;13.97;;
15271;SDS011;7737;51.578;7.268;2024-01-06T12:34:39;18.77;;;13.00;;
15271;SDS011;7737;51.578;7.268;2024-01-06T12:37:07;19.30;;;12.60;;
15271;SDS011;7737;51.578;7.268;2024-01-06T12:39:34;15.90;;;11.60;;
15271;SDS011;7737;51.578;7.268;2024-01-06T12:42:00;17.50;;;11.87;;
15271;SDS011;7737;51.578;7.268;2024-01-06T12:44:27;16.80;;;11.37;;
15271;SDS011;7737;51.578;7.268;2024-01-06T12:46:54;17.10;;;11.37;;
15271;SDS011;7737;51.578;7.268;2024-01-06T12:49:21;15.97;;;11.00;;
15271;SDS011;7737;51.578;7.268;2024-01-06T12:51:48;13.47;;;10.17;;
15271;SDS011;7737;51.578;7.268;2024-01-06T12:54:16;14.77;;;10.13;;
15271;SDS011;7737;51.578;7.268;2024-01-06T12:56:43;16.33;;;11.03;;
15271;SDS011;7737;51.578;7.268;2024-01-06T12:59:09;15.50;;;10.30;;
15271;SDS011;7737;51.578;7.268;2024-01-06T13:01:36;13.13;;;9.73;;
15271;SDS011;7737;51.578;7.268;2024-01-06T13:04:03;14.20;;;9.10;;
15271;SDS011;7737;51.578;7.268;2024-01-06T13:06:29;14.47;;;8.97;;
15271;SDS011;7737;51.578;7.268;2024-01-06T13:08:56;13.17;;;9.53;;
15271;SDS011;7737;51.578;7.268;2024-01-06T13:11:24;15.93;;;9.63;;
15271;SDS011;7737;51.578;7.268;2024-01-06T13:13:51;13.43;;;9.33;;
15271;SDS011;7737;51.578;7.268;2024-01-06T13:16:17;14.07;;;9.20;;
15271;SDS011;7737;51.578;7.268;2024-01-06T13:18:44;12.60;;;9.67;;
15271;SDS011;7737;51.578;7.268;2024-01-06T13:21:10;14.23;;;8.77;;
15271;SDS011;7737;51.578;7.268;2024-01-06T13:23:37;12.03;;;9.20;;
15271;SDS011;7737;51.578;7.268;2024-01-06T13:26:04;12.57;;;9.77;;
15271;SDS011;7737;51.578;7.268;2024-01-06T13:28:31;16.30;;;10.03;;
15271;SDS011;7737;51.578;7.268;2024-01-06T13:30:58;13.37;;;9.80;;
15271;SDS011;7737;51.578;7.268;2024-01-06T13:33:24;15.70;;;10.10;;
15271;SDS011;7737;51.578;7.268;2024-01-06T13:35:51;17.47;;;11.40;;
15271;SDS011;7737;51.578;7.268;2024-01-06T13:38:17;15.33;;;9.43;;
15271;SDS011;7737;51.578;7.268;2024-01-06T13:40:44;14.23;;;9.33;;
15271;SDS011;7737;51.578;7.268;2024-01-06T13:43:10;13.13;;;9.50;;
15271;SDS011;7737;51.578;7.268;2024-01-06T13:45:42;15.60;;;10.23;;
15271;SDS011;7737;51.578;7.268;2024-01-06T13:48:10;15.03;;;10.67;;
15271;SDS011;7737;51.578;7.268;2024-01-06T13:50:36;13.50;;;9.13;;
15271;SDS011;7737;51.578;7.268;2024-01-06T13:53:03;13.97;;;9.00;;
15271;SDS011;7737;51.578;7.268;2024-01-06T13:55:31;13.30;;;9.07;;
15271;SDS011;7737;51.578;7.268;2024-01-06T13:57:58;12.03;;;8.70;;
15271;SDS011;7737;51.578;7.268;2024-01-06T14:00:24;11.73;;;8.10;;
15271;SDS011;7737;51.578;7.268;2024-01-06T14:02:52;11.27;;;8.10;;
15271;SDS011;7737;51.578;7.268;2024-01-06T14:05:20;11.83;;;8.10;;
15271;SDS011;7737;51.578;7.268;2024-01-06T14:07:46;11.53;;;8.33;;
15271;SDS011;7737;51.578;7.268;2024-01-06T14:10:15;14.00;;;8.30;;
15271;SDS011;7737;51.578;7.268;2024-01-06T14:12:42;13.47;;;8.03;;
15271;SDS011;7737;51.578;7.268;2024-01-06T14:15:08;12.23;;;8.27;;
15271;SDS011;7737;51.578;7.268;2024-01-06T14:17:35;13.03;;;8.90;;
15271;SDS011;7737;51.578;7.268;2024-01-06T14:20:04;14.33;;;10.13;;
15271;SDS011;7737;51.578;7.268;2024-01-06T14:22:31;14.80;;;10.13;;
15271;SDS011;7737;51.578;7.268;2024-01-06T14:24:58;13.50;;;9.77;;
15271;SDS011;7737;51.578;7.268;2024-01-06T14:27:25;14.53;;;9.37;;
15271;SDS011;7737;51.578;7.268;2024-01-06T14:29:53;17.00;;;11.87;;
15271;SDS011;7737;51.578;7.268;2024-01-06T14:32:20;16.83;;;11.73;;
15271;SDS011;7737;51.578;7.268;2024-01-06T14:34:48;17.87;;;11.77;;
15271;SDS011;7737;51.578;7.268;2024-01-06T14:37:16;18.93;;;11.80;;
15271;SDS011;7737;51.578;7.268;2024-01-06T14:39:43;15.30;;;10.77;;